Time;durP1;ratioP1;P1;durP2;ratioP2;P2;SDS_P1;SDS_P2;PMS_P1;PMS_P2;Temp;Humidity;BMP_temperature;BMP_pressure;BME280_temperature;BME280_humidity;BME280_pressure;Samples;Min_cycle;Max_cycle;Signal;HPM_P1;HPM_P2
2022/08/12 00:43:36;;;;;;;;;;;;;;;24.13;20.48;101447.81;5023133;28;19944;-75
2022/08/12 00:48:52;;;;;;;;;;;;;;;24.04;20.41;101449.06;5030096;28;20437;-75
2022/08/12 00:51:20;;;;;;;;;;;;;;;24.01;20.53;101452.28;5039637;28;20463;-75
2022/08/12 00:53:49;;;;;;;;;;;;;;;23.98;20.39;101449.06;5027197;28;19925;-75
2022/08/12 00:56:18;;;;;;;;;;;;;;;23.94;20.36;101451.41;5033054;28;19928;-75
2022/08/12 00:58:49;;;;;;;;;;;;;;;23.90;20.58;101450.09;5006085;28;19928;-76
2022/08/12 01:01:18;;;;;;;;;;;;;;;23.86;20.32;101457.16;5025049;28;20390;-75
2022/08/12 01:12:09;;;;;;;;;;;;;;;23.71;20.93;101462.00;5027217;28;19925;-75
2022/08/12 01:14:39;;;;;;;;;;;;;;;23.67;20.96;101458.75;5028516;28;19928;-75
2022/08/12 01:17:08;;;;;;;;;;;;;;;23.63;20.65;101460.25;5033799;28;19971;-75
2022/08/12 01:19:36;;;;;;;;;;;;;;;23.59;20.99;101456.13;5044799;28;19921;-75
2022/08/12 01:22:19;;;;;;;;;;;;;;;23.57;21.01;101449.03;5025784;28;19931;-75
2022/08/12 01:24:57;;;;;;;;;;;;;;;23.52;21.19;101451.56;5030838;28;19951;-75
2022/08/12 01:27:27;;;;;;;;;;;;;;;23.49;21.00;101452.00;5039472;28;20011;-75
2022/08/12 01:29:56;;;;;;;;;;;;;;;23.46;21.24;101455.19;5029358;28;19925;-75
2022/08/12 01:32:26;;;;;;;;;;;;;;;23.43;20.87;101452.78;5033388;28;19921;-75
2022/08/12 01:34:57;;;;;;;;;;;;;;;23.39;21.20;101450.44;5037226;28;19921;-75
2022/08/12 01:37:26;;;;;;;;;;;;;;;23.37;21.39;101458.13;5041319;28;19929;-75
2022/08/12 01:39:57;;;;;;;;;;;;;;;23.33;21.11;101451.22;5017465;28;19928;-75
2022/08/12 01:42:46;;;;;;;;;;;;;;;23.29;21.46;101452.72;5022534;28;20350;-75
2022/08/12 01:45:16;;;;;;;;;;;;;;;23.27;21.22;101453.97;5030066;28;19956;-75
2022/08/12 01:47:56;;;;;;;;;;;;;;;23.23;21.24;101456.31;5016873;28;19922;-75
2022/08/12 01:50:26;;;;;;;;;;;;;;;23.19;21.41;101451.34;5041750;28;19927;-75
2022/08/12 01:53:00;;;;;;;;;;;;;;;23.15;21.31;101450.88;5039355;28;19991;-75
2022/08/12 01:55:32;;;;;;;;;;;;;;;23.13;21.84;101449.34;5036234;28;19928;-75
2022/08/12 01:58:05;;;;;;;;;;;;;;;23.08;21.67;101444.38;5029532;28;19928;-76
2022/08/12 02:00:43;;;;;;;;;;;;;;;23.06;21.73;101454.00;5022208;28;19933;-75
2022/08/12 02:12:29;;;;;;;;;;;;;;;22.88;21.98;101455.34;5046303;28;20302;-75
2022/08/12 02:15:03;;;;;;;;;;;;;;;22.85;21.98;101452.97;5019396;28;19967;-75
2022/08/12 02:17:39;;;;;;;;;;;;;;;22.83;22.16;101459.81;5028220;28;19921;-75
2022/08/12 02:20:27;;;;;;;;;;;;;;;22.80;22.02;101463.00;5031449;28;19924;-75
2022/08/12 02:23:17;;;;;;;;;;;;;;;22.76;22.03;101458.88;5026404;28;20034;-76
2022/08/12 02:25:46;;;;;;;;;;;;;;;22.73;22.37;101465.75;5037646;28;19924;-75
2022/08/12 02:28:16;;;;;;;;;;;;;;;22.70;22.24;101462.47;5038465;28;19921;-75
2022/08/12 02:30:44;;;;;;;;;;;;;;;22.67;22.54;101458.19;5009520;28;20024;-75
2022/08/12 02:33:12;;;;;;;;;;;;;;;22.63;22.20;101466.06;5026062;28;19920;-75
2022/08/12 02:35:40;;;;;;;;;;;;;;;22.62;22.32;101469.06;5036045;28;19927;-75
2022/08/12 02:38:09;;;;;;;;;;;;;;;22.58;22.25;101464.94;5029652;28;19921;-75
2022/08/12 02:40:39;;;;;;;;;;;;;;;22.55;22.59;101460.63;5028429;28;20294;-75
2022/08/12 02:43:12;;;;;;;;;;;;;;;22.52;22.69;101460.97;5037348;28;20280;-75
2022/08/12 02:45:44;;;;;;;;;;;;;;;22.50;22.70;101462.25;5030815;28;19925;-75
2022/08/12 02:48:15;;;;;;;;;;;;;;;22.47;22.64;101471.00;5032274;28;19925;-75
2022/08/12 02:50:46;;;;;;;;;;;;;;;22.43;22.73;101459.38;5031749;28;19924;-75
2022/08/12 02:53:15;;;;;;;;;;;;;;;22.41;23.02;101467.09;5047361;28;20286;-75
2022/08/12 02:55:44;;;;;;;;;;;;;;;22.38;22.60;101461.91;5028619;28;19932;-75
2022/08/12 02:58:13;;;;;;;;;;;;;;;22.36;22.79;101471.53;5031329;28;19925;-75
2022/08/12 03:00:44;;;;;;;;;;;;;;;22.33;22.85;101469.16;4996395;28;19921;-75
2022/08/12 03:03:13;;;;;;;;;;;;;;;22.29;22.88;101471.44;5031540;28;20421;-75
2022/08/12 03:05:45;;;;;;;;;;;;;;;22.25;23.12;101464.56;5034719;28;19927;-75
2022/08/12 03:08:15;;;;;;;;;;;;;;;22.21;23.23;101463.19;5031825;28;20495;-76
2022/08/12 03:11:02;;;;;;;;;;;;;;;22.17;23.24;101456.31;5005758;28;20287;-75
2022/08/12 03:13:32;;;;;;;;;;;;;;;22.14;22.85;101462.25;5041912;28;20455;-75
2022/08/12 03:16:01;;;;;;;;;;;;;;;22.11;23.16;101457.06;5032706;28;19921;-75
2022/08/12 03:18:30;;;;;;;;;;;;;;;22.09;23.08;101462.00;5010309;28;19927;-75
2022/08/12 03:21:00;;;;;;;;;;;;;;;22.05;23.05;101467.09;5026757;28;19921;-75
2022/08/12 03:23:29;;;;;;;;;;;;;;;22.04;23.17;101464.50;5028451;28;19968;-75
2022/08/12 03:26:00;;;;;;;;;;;;;;;22.01;23.56;101464.91;5028847;28;19948;-75
2022/08/12 03:31:18;;;;;;;;;;;;;;;21.95;23.36;101460.09;5026457;28;20357;-75
2022/08/12 03:33:47;;;;;;;;;;;;;;;21.92;23.11;101460.50;5036422;28;19931;-76
2022/08/12 03:36:32;;;;;;;;;;;;;;;21.88;23.66;101458.06;5025188;28;19948;-75
2022/08/12 03:41:57;;;;;;;;;;;;;;;21.82;23.33;101453.25;5125795;27;19923;-66
2022/08/12 04:01:08;;;;;;;;;;;;;;;21.55;24.07;101453.94;5074792;28;19983;-66
2022/08/12 04:03:54;;;;;;;;;;;;;;;21.52;23.58;101457.09;5084201;28;20339;-66
2022/08/12 04:06:25;;;;;;;;;;;;;;;21.49;23.91;101460.28;5069996;28;19925;-66
2022/08/12 04:09:04;;;;;;;;;;;;;;;21.46;24.04;101458.75;5081618;28;19925;-66
2022/08/12 04:14:32;;;;;;;;;;;;;;;21.40;24.13;101458.66;5087694;28;19978;-65
2022/08/12 04:17:00;;;;;;;;;;;;;;;21.37;23.78;101465.47;5087707;28;19924;-66
2022/08/12 04:19:29;;;;;;;;;;;;;;;21.33;24.30;101464.13;5084962;28;19924;-66
2022/08/12 04:21:57;;;;;;;;;;;;;;;21.30;23.96;101466.41;5080750;28;19934;-67
2022/08/12 04:24:29;;;;;;;;;;;;;;;21.26;24.05;101471.50;5078444;28;20335;-67
2022/08/12 04:26:58;;;;;;;;;;;;;;;21.23;24.40;101470.97;5089389;28;19924;-66
2022/08/12 04:29:26;;;;;;;;;;;;;;;21.19;24.10;101462.13;5076844;28;19928;-69
2022/08/12 04:32:15;;;;;;;;;;;;;;;21.17;24.47;101463.41;5077165;28;19931;-69
2022/08/12 04:34:43;;;;;;;;;;;;;;;21.13;24.36;101472.13;5079281;28;19936;-68
2022/08/12 04:37:12;;;;;;;;;;;;;;;21.11;24.36;101470.56;5080803;28;19925;-68
2022/08/12 04:39:40;;;;;;;;;;;;;;;21.09;24.57;101469.91;5074238;28;20007;-69
2022/08/12 04:42:07;;;;;;;;;;;;;;;21.07;24.28;101477.56;5085448;28;20327;-69
2022/08/12 04:44:35;;;;;;;;;;;;;;;21.05;24.45;101476.91;5076886;28;19931;-69
2022/08/12 04:47:03;;;;;;;;;;;;;;;21.01;24.78;101476.44;5076931;28;20455;-68
2022/08/12 04:49:34;;;;;;;;;;;;;;;21.00;24.69;101473.81;5081991;28;19950;-68
2022/08/12 04:52:03;;;;;;;;;;;;;;;20.97;24.53;101461.16;5077009;28;19963;-68
2022/08/12 04:54:32;;;;;;;;;;;;;;;20.95;24.48;101462.38;5068207;28;19925;-68
2022/08/12 04:57:00;;;;;;;;;;;;;;;20.93;24.84;101457.03;5070089;28;20149;-69
2022/08/12 04:59:31;;;;;;;;;;;;;;;20.90;25.01;101462.94;5068478;28;19970;-68
2022/08/12 05:02:16;;;;;;;;;;;;;;;20.89;24.48;101460.34;5068524;28;19930;-68
2022/08/12 05:04:50;;;;;;;;;;;;;;;20.88;24.84;101462.25;5060491;28;19928;-68
2022/08/12 05:07:19;;;;;;;;;;;;;;;20.87;25.00;101468.00;5061792;28;19925;-68
2022/08/12 05:09:47;;;;;;;;;;;;;;;20.87;25.13;101462.44;5073848;28;19925;-68
2022/08/12 05:12:30;;;;;;;;;;;;;;;20.86;24.67;101457.97;5068761;28;19928;-68
2022/08/12 05:14:58;;;;;;;;;;;;;;;20.86;24.83;101460.75;5071329;28;19927;-68
2022/08/12 05:17:25;;;;;;;;;;;;;;;20.86;24.85;101463.53;5066687;28;20019;-68
2022/08/12 05:19:56;;;;;;;;;;;;;;;20.86;25.30;101460.75;5072447;28;19931;-68
2022/08/12 05:22:24;;;;;;;;;;;;;;;20.86;25.18;101461.56;5066431;28;19924;-68
2022/08/12 05:24:52;;;;;;;;;;;;;;;20.88;25.49;101461.41;5067655;28;19929;-68
2022/08/12 05:27:22;;;;;;;;;;;;;;;20.88;25.54;101465.03;5067205;28;20105;-68
2022/08/12 05:29:50;;;;;;;;;;;;;;;20.92;25.31;101460.84;5070138;28;20014;-68
2022/08/12 05:32:35;;;;;;;;;;;;;;;20.98;25.34;101465.66;5066791;28;19925;-68
2022/08/12 05:35:06;;;;;;;;;;;;;;;21.04;25.82;101472.38;5067630;28;19971;-68
2022/08/12 05:37:34;;;;;;;;;;;;;;;21.13;25.29;101471.25;5069601;28;19932;-68
2022/08/12 05:40:03;;;;;;;;;;;;;;;21.23;25.38;101470.97;5071867;28;19925;-65
2022/08/12 05:42:38;;;;;;;;;;;;;;;21.35;25.80;101473.16;5069683;28;19928;-65
2022/08/12 05:45:06;;;;;;;;;;;;;;;21.48;25.50;101476.13;5071297;28;19924;-67
2022/08/12 05:47:34;;;;;;;;;;;;;;;21.61;25.47;101477.38;5066199;28;20027;-64
2022/08/12 05:50:21;;;;;;;;;;;;;;;21.76;25.59;101473.56;5068163;28;20401;-67
2022/08/12 05:52:49;;;;;;;;;;;;;;;21.88;25.21;101473.91;5069143;28;20436;-66
2022/08/12 05:55:21;;;;;;;;;;;;;;;22.00;25.42;101477.09;5098305;28;19965;-68
2022/08/12 05:57:54;;;;;;;;;;;;;;;22.08;25.56;101475.06;5067150;28;19928;-66
2022/08/12 06:00:24;;;;;;;;;;;;;;;22.15;25.10;101473.22;5073369;28;19928;-65
2022/08/12 06:02:55;;;;;;;;;;;;;;;22.22;25.28;101481.66;5064380;28;19928;-66
2022/08/12 06:05:25;;;;;;;;;;;;;;;22.28;25.32;101480.88;5066739;28;19925;-66
2022/08/12 06:07:54;;;;;;;;;;;;;;;22.33;24.95;101489.53;5067415;28;19931;-66
2022/08/12 06:10:29;;;;;;;;;;;;;;;22.35;25.20;101487.38;5067494;28;19935;-66
2022/08/12 06:12:59;;;;;;;;;;;;;;;22.37;24.52;101482.47;5066366;28;20208;-66
2022/08/12 06:15:27;;;;;;;;;;;;;;;22.39;25.11;101480.38;5067848;28;19928;-67
2022/08/12 06:17:55;;;;;;;;;;;;;;;22.41;24.49;101492.19;5067819;28;20297;-66
2022/08/12 06:20:22;;;;;;;;;;;;;;;22.44;24.44;101480.63;5064357;28;20023;-66
2022/08/12 06:22:57;;;;;;;;;;;;;;;22.46;24.61;101489.66;5070292;28;20016;-66
2022/08/12 06:25:28;;;;;;;;;;;;;;;22.49;24.66;101478.13;5070430;28;19924;-66
2022/08/12 06:27:57;;;;;;;;;;;;;;;22.52;24.34;101493.59;5068169;28;19924;-66
2022/08/12 06:30:35;;;;;;;;;;;;;;;22.55;24.47;101488.53;5058942;28;20028;-64
2022/08/12 06:33:07;;;;;;;;;;;;;;;22.59;24.56;101492.63;5068240;28;19978;-64
2022/08/12 06:35:51;;;;;;;;;;;;;;;22.66;24.94;101492.72;5076827;28;20378;-66
2022/08/12 06:38:27;;;;;;;;;;;;;;;22.75;24.91;101494.31;5069195;28;19932;-66
2022/08/12 06:43:42;;;;;;;;;;;;;;;23.01;24.76;101493.69;5073810;28;20059;-66
2022/08/12 06:46:30;;;;;;;;;;;;;;;23.18;24.42;101489.56;5060961;28;19940;-66
2022/08/12 06:48:59;;;;;;;;;;;;;;;23.36;24.74;101481.56;5066358;28;20389;-65
2022/08/12 06:51:28;;;;;;;;;;;;;;;23.58;24.43;101489.88;5066059;28;19928;-65
2022/08/12 06:53:57;;;;;;;;;;;;;;;23.80;24.63;101483.16;5066327;28;19925;-66
2022/08/12 06:56:25;;;;;;;;;;;;;;;24.05;24.36;101481.56;5070514;28;20530;-65
2022/08/12 06:59:14;;;;;;;;;;;;;;;24.35;24.56;101481.22;5063985;28;19928;-66
2022/08/12 07:01:42;;;;;;;;;;;;;;;24.63;24.41;101483.94;5065056;28;19938;-66
2022/08/12 07:04:18;;;;;;;;;;;;;;;24.92;23.89;101483.53;5066385;28;19924;-65
2022/08/12 07:07:05;;;;;;;;;;;;;;;25.22;23.75;101479.28;5068196;28;20001;-66
2022/08/12 07:09:34;;;;;;;;;;;;;;;25.49;23.58;101485.69;5067392;28;19924;-66
2022/08/12 07:12:23;;;;;;;;;;;;;;;25.80;23.56;101485.00;5066111;28;19947;-66
2022/08/12 07:14:54;;;;;;;;;;;;;;;26.07;23.48;101476.53;5064774;23;19933;-67
2022/08/12 07:17:22;;;;;;;;;;;;;;;26.32;23.26;101486.75;5040346;28;19964;-66
2022/08/12 07:19:50;;;;;;;;;;;;;;;26.57;23.05;101491.59;5037528;28;19929;-66
2022/08/12 07:22:20;;;;;;;;;;;;;;;26.78;22.89;101485.69;5028704;28;20028;-65
2022/08/12 07:25:29;;;;;;;;;;;;;;;26.99;22.66;101488.09;5028525;28;19925;-66
2022/08/12 07:27:39;;;;;;;;;;;;;;;27.21;22.41;101498.97;5031947;28;20382;-66
2022/08/12 07:30:08;;;;;;;;;;;;;;;27.38;22.28;101497.28;5040656;28;19971;-67
2022/08/12 07:32:36;;;;;;;;;;;;;;;27.54;22.09;101502.31;5047784;28;20559;-71
2022/08/12 07:35:04;;;;;;;;;;;;;;;27.68;22.04;101503.06;5046902;28;19925;-70
2022/08/12 07:37:33;;;;;;;;;;;;;;;27.80;21.87;101504.91;5047494;28;20024;-71
2022/08/12 07:40:03;;;;;;;;;;;;;;;27.92;21.49;101496.56;5046333;28;19925;-69
2022/08/12 07:42:31;;;;;;;;;;;;;;;28.03;21.42;101495.75;5045282;28;19972;-70
2022/08/12 07:44:59;;;;;;;;;;;;;;;28.11;21.24;101500.22;5036944;28;20008;-71
2022/08/12 07:47:27;;;;;;;;;;;;;;;28.19;21.15;101495.09;5040568;28;19974;-71
2022/08/12 07:49:55;;;;;;;;;;;;;;;28.27;21.01;101495.94;5034471;28;19952;-70
2022/08/12 07:52:32;;;;;;;;;;;;;;;28.34;20.80;101499.53;5044180;28;19982;-70
2022/08/12 07:55:00;;;;;;;;;;;;;;;28.40;20.71;101490.13;5041064;28;19932;-70
2022/08/12 07:57:31;;;;;;;;;;;;;;;28.46;20.58;101492.84;5028664;28;19925;-67
2022/08/12 08:00:03;;;;;;;;;;;;;;;28.54;20.56;101497.28;5029523;28;19947;-71
2022/08/12 08:02:35;;;;;;;;;;;;;;;28.61;20.29;101498.88;5046588;28;19925;-71
2022/08/12 08:05:04;;;;;;;;;;;;;;;28.67;20.33;101505.53;5035355;28;20290;-71
2022/08/12 08:07:32;;;;;;;;;;;;;;;28.74;20.33;101500.69;5052951;28;19929;-70
2022/08/12 08:10:01;;;;;;;;;;;;;;;28.83;20.38;101504.03;5028852;28;19926;-71
2022/08/12 08:15:16;;;;;;;;;;;;;;;29.00;19.97;101507.88;5042210;28;19924;-69
2022/08/12 08:17:58;;;;;;;;;;;;;;;29.09;20.03;101502.75;5038689;28;19973;-71
2022/08/12 08:20:28;;;;;;;;;;;;;;;29.19;20.08;101503.84;5035367;28;19928;-71
2022/08/12 08:22:57;;;;;;;;;;;;;;;29.28;19.74;101501.56;5028287;28;20480;-69
2022/08/12 08:25:30;;;;;;;;;;;;;;;29.37;19.64;101508.56;5031763;28;19925;-70
2022/08/12 08:28:06;;;;;;;;;;;;;;;29.48;19.76;101512.50;5032738;28;19971;-70
2022/08/12 08:30:37;;;;;;;;;;;;;;;29.58;19.58;101509.94;5042618;28;20358;-69
2022/08/12 08:33:07;;;;;;;;;;;;;;;29.67;19.46;101503.66;5042062;28;19964;-69
2022/08/12 08:35:49;;;;;;;;;;;;;;;29.80;19.25;101496.09;5041542;28;19925;-68
2022/08/12 08:38:21;;;;;;;;;;;;;;;29.90;19.21;101502.84;5038563;28;19926;-70
2022/08/12 08:44:09;;;;;;;;;;;;;;;30.11;18.71;101498.47;5042624;28;20404;-71
2022/08/12 08:46:38;;;;;;;;;;;;;;;30.21;18.98;101498.72;5042440;28;20324;-70
2022/08/12 08:49:06;;;;;;;;;;;;;;;30.28;18.72;101499.44;5031501;28;20143;-70
2022/08/12 08:51:34;;;;;;;;;;;;;;;30.37;18.43;101502.75;5032070;28;20309;-69
2022/08/12 08:54:01;;;;;;;;;;;;;;;30.44;18.34;101492.16;5043717;28;19925;-70
2022/08/12 08:56:29;;;;;;;;;;;;;;;30.50;18.21;101493.13;5030451;28;19971;-70
2022/08/12 08:58:57;;;;;;;;;;;;;;;30.55;18.29;101496.91;5040193;28;19951;-70
2022/08/12 09:01:26;;;;;;;;;;;;;;;30.62;18.41;101488.25;5043869;28;19928;-69
2022/08/12 09:04:04;;;;;;;;;;;;;;;30.69;18.28;101508.75;5046053;28;19929;-67
2022/08/12 09:06:55;;;;;;;;;;;;;;;30.77;18.11;101508.38;5060593;28;19936;-70
2022/08/12 09:09:23;;;;;;;;;;;;;;;30.84;18.21;101498.63;5042512;28;19925;-72
2022/08/12 09:14:54;;;;;;;;;;;;;;;31.00;17.73;101505.41;5034912;28;20031;-70
2022/08/12 09:17:23;;;;;;;;;;;;;;;31.08;18.00;101495.63;5043880;28;19935;-70
2022/08/12 09:19:50;;;;;;;;;;;;;;;31.15;17.57;101493.53;5047807;28;19956;-70
2022/08/12 09:22:38;;;;;;;;;;;;;;;31.20;17.48;101494.50;5045863;28;20389;-68
2022/08/12 09:25:06;;;;;;;;;;;;;;;31.26;17.26;101491.75;5029855;28;20350;-68
2022/08/12 09:27:35;;;;;;;;;;;;;;;31.31;16.94;101481.38;5028900;28;19925;-68
2022/08/12 09:30:23;;;;;;;;;;;;;;;31.36;17.34;101484.28;5029099;28;20425;-68
2022/08/12 09:33:11;;;;;;;;;;;;;;;31.39;16.14;101494.25;5030286;28;19932;-68
2022/08/12 09:35:59;;;;;;;;;;;;;;;31.40;16.67;101491.16;5030044;28;20047;-68
2022/08/12 09:38:32;;;;;;;;;;;;;;;31.40;16.46;101482.66;5045390;28;20015;-69
2022/08/12 09:41:04;;;;;;;;;;;;;;;31.41;16.51;101490.00;5028972;28;20396;-68
2022/08/12 09:46:57;;;;;;;;;;;;;;;31.46;16.54;101483.59;5029820;28;19987;-69
2022/08/12 09:49:33;;;;;;;;;;;;;;;31.49;16.97;101480.22;5029707;28;19925;-68
2022/08/12 09:52:10;;;;;;;;;;;;;;;31.53;16.33;101484.28;5030060;28;19929;-69
2022/08/12 09:54:38;;;;;;;;;;;;;;;31.57;16.88;101474.13;5029538;28;20015;-66
2022/08/12 09:57:10;;;;;;;;;;;;;;;31.63;16.43;101483.56;5045235;28;19925;-67
2022/08/12 09:59:57;;;;;;;;;;;;;;;31.69;16.50;101460.78;5028568;28;19935;-68
2022/08/12 10:03:00;;;;;;;;;;;;;;;31.75;16.24;101465.38;5029183;28;20036;-66
2022/08/12 10:05:35;;;;;;;;;;;;;;;31.82;16.12;101462.34;5028586;28;20420;-67
2022/08/12 10:08:26;;;;;;;;;;;;;;;31.88;15.99;101462.19;5029458;28;19948;-67
2022/08/12 10:13:48;;;;;;;;;;;;;;;32.00;15.95;101455.53;5035218;28;19932;-71
2022/08/12 10:16:17;;;;;;;;;;;;;;;32.06;15.86;101446.84;5047013;28;20293;-68
2022/08/12 10:18:50;;;;;;;;;;;;;;;32.12;15.80;101436.44;5049361;28;19932;-69
2022/08/12 10:21:22;;;;;;;;;;;;;;;32.15;15.39;101445.28;5048947;28;20443;-69
2022/08/12 10:23:51;;;;;;;;;;;;;;;32.20;15.42;101436.84;5064297;28;19929;-68
2022/08/12 10:32:19;;;;;;;;;;;;;;;32.29;15.23;101421.09;5034766;28;19931;-68
2022/08/12 10:35:08;;;;;;;;;;;;;;;32.33;15.17;101416.59;5034705;28;20371;-69
2022/08/12 10:37:38;;;;;;;;;;;;;;;32.38;15.64;101420.63;5028818;28;20352;-68
2022/08/12 10:40:26;;;;;;;;;;;;;;;32.43;15.74;101415.00;5030080;28;20437;-68
2022/08/12 10:45:47;;;;;;;;;;;;;;;32.51;14.93;101403.19;5035991;28;20307;-68
2022/08/12 10:48:16;;;;;;;;;;;;;;;32.56;15.16;101397.56;5027682;28;19925;-68
2022/08/12 10:50:54;;;;;;;;;;;;;;;32.59;15.32;101399.88;5038883;28;19948;-68
2022/08/12 10:53:31;;;;;;;;;;;;;;;32.62;15.30;101385.22;5039842;28;19924;-68
2022/08/12 10:56:14;;;;;;;;;;;;;;;32.65;14.47;101391.16;5030676;28;20451;-67
2022/08/12 10:58:42;;;;;;;;;;;;;;;32.67;15.00;101390.91;5044707;28;19931;-68
2022/08/12 11:01:14;;;;;;;;;;;;;;;32.67;14.46;101396.56;5034762;28;20443;-67
2022/08/12 11:04:04;;;;;;;;;;;;;;;32.68;14.53;101382.13;5040949;28;20304;-67
2022/08/12 11:06:52;;;;;;;;;;;;;;;32.68;15.03;101381.28;5039464;28;19975;-66
2022/08/12 11:09:41;;;;;;;;;;;;;;;32.69;14.48;101374.50;5030859;28;20299;-67
2022/08/12 11:12:29;;;;;;;;;;;;;;;32.70;14.78;101376.22;5032754;28;19935;-67
2022/08/12 11:15:17;;;;;;;;;;;;;;;32.71;14.88;101375.09;5035730;28;19924;-67
2022/08/12 11:17:51;;;;;;;;;;;;;;;32.71;14.29;101366.59;5044252;28;20633;-67
2022/08/12 11:20:22;;;;;;;;;;;;;;;32.72;14.20;101366.28;5034205;28;20412;-67
2022/08/12 11:22:57;;;;;;;;;;;;;;;32.75;14.00;101366.88;5026873;28;20386;-67
2022/08/12 11:25:27;;;;;;;;;;;;;;;32.77;14.16;101358.97;5032686;28;19924;-69
2022/08/12 11:28:16;;;;;;;;;;;;;;;32.79;14.18;101351.91;5047465;28;19990;-67
2022/08/12 11:31:00;;;;;;;;;;;;;;;32.82;14.72;101356.16;5047913;28;20015;-68
2022/08/12 11:33:27;;;;;;;;;;;;;;;32.83;14.66;101364.41;5047881;28;19931;-69
2022/08/12 11:36:16;;;;;;;;;;;;;;;32.85;13.94;101362.16;5047680;28;20259;-69
2022/08/12 11:38:43;;;;;;;;;;;;;;;32.86;14.49;101346.00;5047585;28;19928;-68
2022/08/12 11:41:19;;;;;;;;;;;;;;;32.86;14.67;101349.69;5028520;28;20034;-67
2022/08/12 11:43:58;;;;;;;;;;;;;;;32.88;14.25;101343.75;5029905;28;19956;-68
2022/08/12 11:46:46;;;;;;;;;;;;;;;32.88;14.26;101350.28;5048196;28;19998;-68
2022/08/12 11:49:20;;;;;;;;;;;;;;;32.88;13.86;101350.28;5045789;28;20015;-66
2022/08/12 11:51:59;;;;;;;;;;;;;;;32.88;13.73;101350.28;5046037;28;19952;-68
2022/08/12 11:54:27;;;;;;;;;;;;;;;32.87;14.13;101348.56;5027268;28;19940;-67
2022/08/12 11:56:58;;;;;;;;;;;;;;;32.86;14.16;101343.16;5029471;28;19925;-67
2022/08/12 11:59:28;;;;;;;;;;;;;;;32.85;14.24;101332.94;5032454;28;19931;-68
2022/08/12 12:02:16;;;;;;;;;;;;;;;32.83;14.30;101333.22;5049099;28;19925;-67
2022/08/12 12:04:47;;;;;;;;;;;;;;;32.83;13.80;101338.88;5048353;28;19925;-69
2022/08/12 12:07:21;;;;;;;;;;;;;;;32.83;13.63;101336.06;5036341;28;20016;-67
2022/08/12 12:10:09;;;;;;;;;;;;;;;32.83;14.27;101330.38;5042823;28;20274;-68
2022/08/12 12:12:39;;;;;;;;;;;;;;;32.85;14.19;101328.13;5052185;28;19925;-68
2022/08/12 12:15:16;;;;;;;;;;;;;;;32.86;14.19;101321.34;5039026;28;20172;-67
2022/08/12 12:18:04;;;;;;;;;;;;;;;32.88;13.93;101323.91;5036242;28;19924;-68
2022/08/12 12:20:31;;;;;;;;;;;;;;;32.89;13.34;101325.59;5050654;28;19936;-67
2022/08/12 12:22:59;;;;;;;;;;;;;;;32.91;13.94;101312.00;5057281;28;20426;-67
2022/08/12 12:25:27;;;;;;;;;;;;;;;32.91;13.44;101310.03;5049527;28;19924;-68
2022/08/12 12:28:17;;;;;;;;;;;;;;;32.92;13.82;101308.91;5051104;28;20439;-66
2022/08/12 12:31:04;;;;;;;;;;;;;;;32.94;13.63;101309.50;5038939;28;19925;-68
2022/08/12 12:33:52;;;;;;;;;;;;;;;32.97;13.32;101310.94;5030618;28;19975;-68
2022/08/12 12:36:25;;;;;;;;;;;;;;;32.99;13.44;101297.31;5031711;28;20452;-68
2022/08/12 12:38:57;;;;;;;;;;;;;;;33.01;13.16;101300.75;5030251;28;19928;-67
2022/08/12 12:41:27;;;;;;;;;;;;;;;33.00;13.39;101296.19;5036436;28;20003;-68
2022/08/12 12:44:16;;;;;;;;;;;;;;;33.01;12.87;101292.22;5030446;28;20290;-68
2022/08/12 12:47:04;;;;;;;;;;;;;;;33.00;13.61;101279.19;5031277;28;20095;-68
2022/08/12 12:49:51;;;;;;;;;;;;;;;33.02;13.50;101271.25;5030386;28;20396;-68
2022/08/12 12:52:20;;;;;;;;;;;;;;;33.04;13.31;101275.53;5038059;28;19932;-68
2022/08/12 12:54:56;;;;;;;;;;;;;;;33.07;13.46;101265.63;5050345;28;19925;-69
2022/08/12 12:57:24;;;;;;;;;;;;;;;33.10;12.85;101269.91;5036774;28;19925;-68
2022/08/12 13:00:15;;;;;;;;;;;;;;;33.13;13.16;101266.53;5029153;28;19929;-68
2022/08/12 13:02:49;;;;;;;;;;;;;;;33.16;13.03;101268.81;5040433;28;19929;-67
2022/08/12 13:05:25;;;;;;;;;;;;;;;33.18;13.09;101256.06;5043989;28;20337;-68
2022/08/12 13:07:56;;;;;;;;;;;;;;;33.19;12.83;101249.25;5049834;28;20345;-67
2022/08/12 13:10:29;;;;;;;;;;;;;;;33.21;12.38;101260.34;5049420;28;19974;-67
2022/08/12 13:13:04;;;;;;;;;;;;;;;33.22;12.34;101251.53;5050556;28;20036;-69
2022/08/12 13:15:53;;;;;;;;;;;;;;;33.22;12.82;101248.69;5048920;28;20314;-67
2022/08/12 13:18:30;;;;;;;;;;;;;;;33.23;12.34;101247.56;5050214;28;19948;-67
2022/08/12 13:21:01;;;;;;;;;;;;;;;33.24;12.49;101242.75;5039687;28;19929;-68
2022/08/12 13:23:28;;;;;;;;;;;;;;;33.24;12.82;101242.75;5028532;28;20449;-69
2022/08/12 13:26:03;;;;;;;;;;;;;;;33.24;12.41;101243.59;5038891;28;19932;-69
2022/08/12 13:28:31;;;;;;;;;;;;;;;33.24;12.54;101242.75;5030537;28;19928;-69
2022/08/12 13:31:01;;;;;;;;;;;;;;;33.25;12.82;101242.47;5037856;28;20415;-69
2022/08/12 13:33:29;;;;;;;;;;;;;;;33.27;12.73;101236.53;5039022;28;20262;-68
2022/08/12 13:36:19;;;;;;;;;;;;;;;33.28;12.47;101246.75;5035626;28;19929;-69
2022/08/12 13:38:49;;;;;;;;;;;;;;;33.28;12.24;101236.25;5034418;28;19932;-68
2022/08/12 13:41:32;;;;;;;;;;;;;;;33.29;12.73;101228.59;5039685;28;20418;-68
2022/08/12 13:44:00;;;;;;;;;;;;;;;33.29;12.24;101231.44;5034898;28;19932;-69
2022/08/12 13:46:29;;;;;;;;;;;;;;;33.29;12.04;101231.44;5039184;28;20024;-68
2022/08/12 13:48:57;;;;;;;;;;;;;;;33.28;12.26;101227.75;5036425;28;19964;-68
2022/08/12 13:51:25;;;;;;;;;;;;;;;33.27;11.85;101231.72;5042716;28;19968;-68
2022/08/12 13:54:08;;;;;;;;;;;;;;;33.27;11.77;101225.19;5036268;28;19987;-69
2022/08/12 13:56:40;;;;;;;;;;;;;;;33.25;11.82;101221.75;5058115;28;19936;-69
2022/08/12 13:59:17;;;;;;;;;;;;;;;33.23;12.42;101221.19;5032828;28;19932;-69
2022/08/12 14:01:53;;;;;;;;;;;;;;;33.21;11.89;101209.28;5041459;28;20405;-69
2022/08/12 14:04:23;;;;;;;;;;;;;;;33.21;12.30;101223.47;5026821;28;19991;-68
2022/08/12 14:06:52;;;;;;;;;;;;;;;33.18;11.83;101207.00;5040315;28;19929;-69
2022/08/12 14:09:20;;;;;;;;;;;;;;;33.17;11.62;101205.28;5036917;28;19925;-69
2022/08/12 14:11:48;;;;;;;;;;;;;;;33.15;11.75;101207.53;5030746;28;19925;-68
2022/08/12 14:14:27;;;;;;;;;;;;;;;33.13;11.59;101206.97;5041419;28;19925;-69
2022/08/12 14:17:08;;;;;;;;;;;;;;;33.10;11.62;101199.88;5035068;28;19925;-69
2022/08/12 14:19:37;;;;;;;;;;;;;;;33.08;11.70;101200.16;5032436;28;19925;-68
2022/08/12 14:22:21;;;;;;;;;;;;;;;33.04;11.67;101206.63;5034096;28;19928;-69
2022/08/12 14:24:53;;;;;;;;;;;;;;;33.02;11.69;101206.91;5031019;28;19933;-68
2022/08/12 14:27:22;;;;;;;;;;;;;;;33.01;11.76;101205.19;5031991;28;19925;-69
2022/08/12 14:30:11;;;;;;;;;;;;;;;32.98;11.80;101200.06;5031596;28;19933;-70
2022/08/12 14:32:52;;;;;;;;;;;;;;;32.97;12.39;101189.84;5050180;28;19929;-69
2022/08/12 14:35:19;;;;;;;;;;;;;;;32.97;11.84;101197.53;5036842;28;20369;-69
2022/08/12 14:37:51;;;;;;;;;;;;;;;32.96;12.31;101179.66;5035852;28;19928;-69
2022/08/12 14:40:25;;;;;;;;;;;;;;;32.95;12.22;101182.75;5035102;28;19932;-69
2022/08/12 14:42:54;;;;;;;;;;;;;;;32.93;11.67;101182.19;5047694;28;19929;-69
2022/08/12 14:45:24;;;;;;;;;;;;;;;32.91;11.79;101182.44;5028321;28;20729;-69
2022/08/12 14:48:13;;;;;;;;;;;;;;;32.89;12.01;101187.53;5040957;28;20037;-68
2022/08/12 14:50:42;;;;;;;;;;;;;;;32.86;11.92;101193.78;5038713;28;19935;-69
2022/08/12 14:53:30;;;;;;;;;;;;;;;32.82;11.47;101188.91;5033550;28;19932;-67
2022/08/12 14:56:19;;;;;;;;;;;;;;;32.78;11.42;101180.13;5032326;28;20051;-67
2022/08/12 15:01:53;;;;;;;;;;;;;;;32.70;11.96;101173.00;5035577;28;19925;-68
2022/08/12 15:04:27;;;;;;;;;;;;;;;32.67;11.87;101178.34;5043864;28;20024;-68
2022/08/12 15:06:56;;;;;;;;;;;;;;;32.64;11.43;101182.56;5033143;28;19952;-68